Time;durP1;ratioP1;P1;durP2;ratioP2;P2;SDS_P1;SDS_P2;PMS_P1;PMS_P2;Temp;Humidity;BMP_temperature;BMP_pressure;BME280_temperature;BME280_humidity;BME280_pressure;Samples;Min_cycle;Max_cycle;Signal;HPM_P1;HPM_P2
2021/10/05 00:01:31;;;;;;;4.80;2.40;;;;;;;;;;5051496;28;20028;-89
2021/10/05 00:03:56;;;;;;;3.90;2.35;;;;;;;;;;5032300;28;20065;-88
2021/10/05 00:06:21;;;;;;;5.03;2.17;;;;;;;;;;5033358;28;20495;-88
2021/10/05 00:08:47;;;;;;;4.35;1.98;;;;;;;;;;5032623;28;20491;-89
2021/10/05 00:11:12;;;;;;;4.75;2.08;;;;;;;;;;5032148;28;20037;-88
2021/10/05 00:13:40;;;;;;;4.45;1.95;;;;;;;;;;5050471;28;20395;-88
2021/10/05 00:16:07;;;;;;;8.50;2.78;;;;;;;;;;5032611;28;20130;-89
2021/10/05 00:18:33;;;;;;;6.18;2.50;;;;;;;;;;5033483;28;20025;-88
2021/10/05 00:21:16;;;;;;;5.85;2.42;;;;;;;;;;5032794;28;20017;-88
2021/10/05 00:23:42;;;;;;;6.78;2.65;;;;;;;;;;5035648;28;20025;-88
2021/10/05 00:26:07;;;;;;;6.38;2.55;;;;;;;;;;5054529;28;20023;-89
2021/10/05 00:28:33;;;;;;;5.88;2.22;;;;;;;;;;5036723;28;20032;-89
2021/10/05 00:31:01;;;;;;;6.25;2.17;;;;;;;;;;5036653;28;20021;-88
2021/10/05 00:33:36;;;;;;;;;;;;;;;;;;;;;
2021/10/05 00:36:02;;;;;;;7.78;2.88;;;;;;;;;;5054978;28;20033;-89
2021/10/05 00:38:28;;;;;;;6.97;3.28;;;;;;;;;;5036428;28;20112;-89
2021/10/05 00:40:53;;;;;;;3.08;2.28;;;;;;;;;;5036619;28;20461;-89
2021/10/05 00:43:19;;;;;;;8.35;2.47;;;;;;;;;;5054179;28;20032;-89
2021/10/05 00:45:44;;;;;;;6.07;2.30;;;;;;;;;;5035933;28;20037;-89
2021/10/05 00:48:09;;;;;;;3.92;2.03;;;;;;;;;;5035681;28;20060;-89
2021/10/05 00:50:35;;;;;;;2.70;2.20;;;;;;;;;;5035699;28;20021;-89
2021/10/05 00:53:00;;;;;;;3.72;2.35;;;;;;;;;;5036311;28;20480;-88
2021/10/05 00:55:25;;;;;;;4.53;2.37;;;;;;;;;;5035779;28;20519;-89
2021/10/05 00:57:51;;;;;;;9.20;2.50;;;;;;;;;;5035622;28;20371;-89
2021/10/05 01:00:22;;;;;;;5.20;2.30;;;;;;;;;;5035814;28;20035;-88
2021/10/05 01:02:47;;;;;;;4.55;2.30;;;;;;;;;;5053701;28;20689;-89
2021/10/05 08:21:33;;;;;;;6.00;5.45;;;;;;;;;;4243549;28;20484;-89
2021/10/05 08:23:59;;;;;;;6.32;5.70;;;;;;;;;;4968044;28;20119;-89
2021/10/05 08:26:24;;;;;;;12.43;5.75;;;;;;;;;;5002249;28;20092;-89
2021/10/05 08:28:49;;;;;;;8.95;6.45;;;;;;;;;;4981562;28;20044;-89
2021/10/05 08:31:15;;;;;;;8.27;5.97;;;;;;;;;;5005773;28;20324;-89
2021/10/05 08:33:43;;;;;;;9.63;6.15;;;;;;;;;;4984306;28;20053;-89
2021/10/05 08:36:08;;;;;;;7.45;5.60;;;;;;;;;;4980638;28;20136;-89
2021/10/05 08:38:34;;;;;;;8.20;5.93;;;;;;;;;;4974893;28;20468;-89
2021/10/05 08:41:03;;;;;;;9.00;5.82;;;;;;;;;;4987433;28;20155;-88
2021/10/05 08:43:29;;;;;;;8.93;5.80;;;;;;;;;;4985306;28;20129;-88
2021/10/05 08:45:56;;;;;;;7.82;5.38;;;;;;;;;;4989685;28;20437;-88
2021/10/05 08:48:27;;;;;;;6.25;5.63;;;;;;;;;;4974564;28;20079;-89
2021/10/05 08:50:52;;;;;;;8.75;5.35;;;;;;;;;;4994065;28;20053;-89
2021/10/05 08:53:17;;;;;;;7.07;5.75;;;;;;;;;;4990259;28;20114;-89
2021/10/05 08:55:44;;;;;;;8.27;5.13;;;;;;;;;;4973554;28;20536;-89
2021/10/05 08:58:09;;;;;;;8.80;5.32;;;;;;;;;;4986964;28;20261;-89
2021/10/05 09:00:35;;;;;;;6.93;5.73;;;;;;;;;;4988847;28;20509;-89
2021/10/05 09:03:00;;;;;;;7.72;5.53;;;;;;;;;;4988910;28;20065;-89
2021/10/05 09:05:26;;;;;;;9.40;6.10;;;;;;;;;;4985786;28;20033;-89
2021/10/05 09:07:53;;;;;;;9.32;6.35;;;;;;;;;;4987762;28;20018;-89
2021/10/05 09:10:23;;;;;;;6.72;5.10;;;;;;;;;;4985721;28;20458;-89
2021/10/05 09:12:50;;;;;;;7.13;4.95;;;;;;;;;;4987988;28;20030;-89
2021/10/05 09:15:17;;;;;;;10.70;5.30;;;;;;;;;;4974437;28;20140;-89
2021/10/05 09:17:48;;;;;;;9.85;5.85;;;;;;;;;;4962401;28;20400;-89
2021/10/05 09:20:15;;;;;;;6.95;5.55;;;;;;;;;;4982354;28;20018;-89
2021/10/05 09:22:40;;;;;;;7.05;4.40;;;;;;;;;;4986236;28;20042;-89
2021/10/05 09:25:14;;;;;;;7.95;4.85;;;;;;;;;;4985417;28;20026;-89
2021/10/05 09:27:49;;;;;;;6.93;4.90;;;;;;;;;;5001468;28;20100;-89
2021/10/05 09:30:18;;;;;;;6.80;4.40;;;;;;;;;;5001652;28;20061;-89
2021/10/05 09:32:56;;;;;;;5.40;4.90;;;;;;;;;;5002559;28;20026;-89
2021/10/05 09:35:24;;;;;;;10.48;4.70;;;;;;;;;;5003313;28;20381;-89
2021/10/05 09:37:50;;;;;;;5.22;4.72;;;;;;;;;;5002599;28;20049;-89
2021/10/05 09:40:16;;;;;;;5.38;4.53;;;;;;;;;;4985964;28;20064;-89
2021/10/05 09:42:44;;;;;;;5.47;4.60;;;;;;;;;;4986183;28;20026;-89
2021/10/05 09:45:12;;;;;;;5.65;4.43;;;;;;;;;;5003163;28;20033;-89
2021/10/05 09:47:44;;;;;;;6.88;4.93;;;;;;;;;;4981727;28;20061;-89
2021/10/05 09:50:09;;;;;;;;;;;;;;;;;;4995673;28;20818;-89
2021/10/05 09:52:45;;;;;;;6.47;4.85;;;;;;;;;;5009000;28;20652;-89
2021/10/05 09:55:10;;;;;;;5.07;4.07;;;;;;;;;;4985308;28;20014;-89
2021/10/05 09:57:36;;;;;;;9.65;5.18;;;;;;;;;;5003729;28;20034;-89
2021/10/05 10:00:03;;;;;;;9.68;4.47;;;;;;;;;;4996873;28;20105;-89
2021/10/05 10:02:28;;;;;;;10.60;4.80;;;;;;;;;;4980403;28;20124;-89
2021/10/05 10:04:54;;;;;;;7.32;4.80;;;;;;;;;;4984813;28;20136;-89
2021/10/05 10:07:19;;;;;;;7.75;4.63;;;;;;;;;;4982264;28;20061;-89
2021/10/05 10:09:45;;;;;;;5.80;4.57;;;;;;;;;;5015315;28;20106;-89
2021/10/05 10:12:10;;;;;;;6.78;4.18;;;;;;;;;;5004280;28;20118;-89
2021/10/05 10:14:38;;;;;;;4.53;4.13;;;;;;;;;;5023334;28;20031;-89
2021/10/05 10:17:03;;;;;;;6.20;4.43;;;;;;;;;;5006805;28;20096;-88
2021/10/05 10:19:32;;;;;;;6.80;3.92;;;;;;;;;;5003158;28;20120;-89
2021/10/05 10:22:08;;;;;;;7.30;4.32;;;;;;;;;;4966320;28;20034;-89
2021/10/05 10:24:45;;;;;;;6.25;3.80;;;;;;;;;;4970518;28;20069;-89
2021/10/05 10:27:11;;;;;;;7.43;4.60;;;;;;;;;;4955370;28;20022;-90
2021/10/05 10:29:36;;;;;;;6.65;4.95;;;;;;;;;;4960654;28;20093;-89
2021/10/05 10:32:18;;;;;;;6.78;4.22;;;;;;;;;;4981287;28;20044;-89
2021/10/05 10:34:44;;;;;;;5.93;4.80;;;;;;;;;;4982414;28;20026;-89
2021/10/05 10:37:10;;;;;;;7.32;4.35;;;;;;;;;;4965266;28;20061;-89
2021/10/05 10:39:39;;;;;;;6.45;4.20;;;;;;;;;;4975694;28;20023;-90
2021/10/05 10:42:06;;;;;;;5.15;4.47;;;;;;;;;;4964663;28;20112;-89
2021/10/05 10:44:33;;;;;;;6.65;4.65;;;;;;;;;;4983205;28;20032;-89
2021/10/05 10:47:18;;;;;;;6.50;4.78;;;;;;;;;;4965235;28;20042;-89
2021/10/05 10:49:53;;;;;;;9.40;4.90;;;;;;;;;;4961614;28;20195;-89
2021/10/05 10:52:28;;;;;;;6.93;4.65;;;;;;;;;;4981679;28;20022;-89
2021/10/05 10:54:57;;;;;;;7.03;4.40;;;;;;;;;;4959392;28;20141;-89
2021/10/05 10:57:34;;;;;;;8.30;4.80;;;;;;;;;;4975245;28;20036;-89
2021/10/05 11:00:09;;;;;;;7.15;4.75;;;;;;;;;;4953912;28;20028;-89
2021/10/05 11:02:41;;;;;;;8.57;4.82;;;;;;;;;;4981542;28;20022;-89
2021/10/05 11:05:07;;;;;;;9.45;5.03;;;;;;;;;;4962395;28;20056;-89
2021/10/05 11:07:32;;;;;;;9.55;4.97;;;;;;;;;;4977563;28;20035;-89
2021/10/05 11:09:57;;;;;;;7.93;4.53;;;;;;;;;;4978908;28;20030;-89
2021/10/05 11:12:22;;;;;;;8.13;5.40;;;;;;;;;;4979137;28;20037;-89
2021/10/05 11:14:47;;;;;;;6.90;4.30;;;;;;;;;;4952134;28;20104;-89
2021/10/05 11:17:13;;;;;;;6.90;4.10;;;;;;;;;;4949334;28;20262;-89
2021/10/05 11:19:39;;;;;;;6.60;3.50;;;;;;;;;;4970707;28;20680;-89
2021/10/05 11:22:07;;;;;;;7.07;3.47;;;;;;;;;;4972918;28;20641;-89
2021/10/05 11:24:35;;;;;;;5.32;3.42;;;;;;;;;;4948579;28;20042;-89
2021/10/05 11:27:00;;;;;;;4.35;3.95;;;;;;;;;;4970431;28;20026;-89
2021/10/05 11:29:26;;;;;;;3.47;3.13;;;;;;;;;;4968965;28;20057;-89
2021/10/05 11:31:53;;;;;;;7.88;4.00;;;;;;;;;;4971048;28;20034;-89
2021/10/05 11:34:19;;;;;;;10.43;4.20;;;;;;;;;;4965356;28;20113;-89
2021/10/05 11:36:44;;;;;;;7.70;3.53;;;;;;;;;;4982213;28;20482;-89
2021/10/05 11:39:17;;;;;;;4.63;3.58;;;;;;;;;;4982942;28;20449;-89
2021/10/05 11:41:43;;;;;;;5.10;3.33;;;;;;;;;;4963949;28;20027;-89
2021/10/05 11:44:12;;;;;;;8.32;3.95;;;;;;;;;;4963765;28;20105;-89
2021/10/05 11:46:37;;;;;;;6.18;4.38;;;;;;;;;;4964757;28;20113;-89
2021/10/05 11:49:02;;;;;;;5.07;3.83;;;;;;;;;;4961683;28;20109;-89
2021/10/05 11:51:28;;;;;;;6.33;3.80;;;;;;;;;;4978292;28;20249;-89
2021/10/05 11:53:55;;;;;;;6.47;4.10;;;;;;;;;;4965480;28;21088;-89
2021/10/05 11:56:21;;;;;;;6.63;4.03;;;;;;;;;;4965644;28;20265;-89
2021/10/05 11:58:54;;;;;;;5.07;4.45;;;;;;;;;;4965191;28;20702;-89
2021/10/05 12:01:23;;;;;;;7.57;4.07;;;;;;;;;;4965050;28;20113;-89
2021/10/05 12:03:49;;;;;;;8.15;3.75;;;;;;;;;;4964938;28;20030;-89
2021/10/05 12:06:28;;;;;;;4.65;3.70;;;;;;;;;;4982194;28;20030;-89
2021/10/05 12:08:53;;;;;;;6.25;3.78;;;;;;;;;;4965482;28;20068;-89
2021/10/05 12:11:18;;;;;;;7.80;4.20;;;;;;;;;;4983481;28;20058;-90
2021/10/05 12:13:45;;;;;;;7.30;3.75;;;;;;;;;;4964956;28;20073;-89
2021/10/05 12:16:14;;;;;;;6.63;3.53;;;;;;;;;;4964341;28;20029;-89
2021/10/05 12:18:40;;;;;;;9.77;3.90;;;;;;;;;;4982693;28;20484;-89
2021/10/05 12:21:06;;;;;;;4.82;3.83;;;;;;;;;;4971184;28;20045;-89
2021/10/05 12:23:31;;;;;;;7.18;3.75;;;;;;;;;;4984683;28;20029;-89
2021/10/05 12:26:10;;;;;;;5.97;3.75;;;;;;;;;;5017357;28;20030;-89
2021/10/05 12:28:36;;;;;;;10.38;4.10;;;;;;;;;;4985971;28;20818;-89
2021/10/05 12:31:10;;;;;;;7.68;4.47;;;;;;;;;;5003190;28;20026;-89
2021/10/05 12:33:37;;;;;;;9.88;4.40;;;;;;;;;;4985613;28;20448;-89
2021/10/05 12:36:02;;;;;;;6.55;3.85;;;;;;;;;;4986423;28;20049;-89
2021/10/05 12:38:34;;;;;;;8.85;4.53;;;;;;;;;;4986221;28;20029;-89
2021/10/05 12:41:00;;;;;;;6.97;4.22;;;;;;;;;;4985113;28;20018;-88
2021/10/05 12:43:35;;;;;;;9.32;4.30;;;;;;;;;;5003002;28;20120;-88
2021/10/05 12:46:00;;;;;;;5.82;3.58;;;;;;;;;;5006028;28;20141;-88
2021/10/05 12:48:49;;;;;;;5.07;3.58;;;;;;;;;;5006090;28;20131;-89
2021/10/05 12:51:22;;;;;;;5.38;3.42;;;;;;;;;;4995165;28;20041;-88
2021/10/05 12:53:48;;;;;;;5.28;3.53;;;;;;;;;;5004161;28;20037;-88
2021/10/05 12:56:14;;;;;;;4.40;3.42;;;;;;;;;;4986937;28;20022;-88
2021/10/05 12:58:40;;;;;;;10.75;3.55;;;;;;;;;;4986515;28;20385;-88
2021/10/05 13:01:06;;;;;;;6.85;4.05;;;;;;;;;;5019434;28;20072;-88
2021/10/05 13:03:35;;;;;;;4.88;3.08;;;;;;;;;;5023140;28;20018;-89
2021/10/05 13:06:00;;;;;;;4.80;2.30;;;;;;;;;;4999374;28;20060;-88
2021/10/05 13:08:25;;;;;;;3.25;2.65;;;;;;;;;;5003361;28;20080;-88
2021/10/05 13:10:53;;;;;;;5.22;2.97;;;;;;;;;;5004238;28;20113;-89
2021/10/05 13:13:18;;;;;;;3.13;2.35;;;;;;;;;;4985877;28;20062;-89
2021/10/05 13:15:44;;;;;;;6.82;3.08;;;;;;;;;;5003410;28;20061;-88
2021/10/05 13:18:09;;;;;;;2.83;2.20;;;;;;;;;;4994005;28;20029;-88
2021/10/05 13:20:34;;;;;;;4.35;2.40;;;;;;;;;;5022342;28;20459;-88
2021/10/05 13:23:01;;;;;;;4.03;2.58;;;;;;;;;;4969219;28;20058;-89
2021/10/05 13:25:26;;;;;;;8.50;2.63;;;;;;;;;;5003297;28;20106;-89
2021/10/05 13:27:51;;;;;;;4.57;2.53;;;;;;;;;;4978626;28;20062;-89
2021/10/05 13:30:18;;;;;;;6.30;3.20;;;;;;;;;;4982991;28;20046;-88
2021/10/05 13:32:44;;;;;;;4.60;2.10;;;;;;;;;;4983946;28;20289;-89
2021/10/05 13:35:09;;;;;;;2.55;2.10;;;;;;;;;;4999248;28;20019;-89
2021/10/05 13:37:37;;;;;;;5.72;2.40;;;;;;;;;;4998560;28;20029;-89
2021/10/05 13:40:03;;;;;;;4.25;2.00;;;;;;;;;;4984448;28;20541;-89
2021/10/05 13:42:28;;;;;;;4.55;2.20;;;;;;;;;;5000111;28;20105;-89
2021/10/05 13:44:53;;;;;;;3.33;2.20;;;;;;;;;;4999103;28;20023;-89
2021/10/05 13:47:19;;;;;;;3.63;2.20;;;;;;;;;;4984175;28;20100;-89
2021/10/05 13:49:45;;;;;;;3.72;2.50;;;;;;;;;;4966677;28;20109;-89
2021/10/05 13:52:10;;;;;;;2.90;1.75;;;;;;;;;;4976407;28;20455;-89
2021/10/05 13:54:35;;;;;;;2.50;2.30;;;;;;;;;;4992383;28;20054;-89
2021/10/05 13:57:00;;;;;;;2.97;2.20;;;;;;;;;;4965838;28;20265;-89
2021/10/05 13:59:26;;;;;;;3.87;2.73;;;;;;;;;;4983368;28;20059;-89
2021/10/05 14:01:51;;;;;;;7.50;2.20;;;;;;;;;;4983113;28;21130;-89
2021/10/05 14:04:20;;;;;;;4.30;2.47;;;;;;;;;;4993251;28;20026;-89
2021/10/05 14:06:46;;;;;;;3.25;2.47;;;;;;;;;;4965500;28;20114;-89
2021/10/05 14:09:12;;;;;;;4.15;2.42;;;;;;;;;;4965816;28;20030;-89
2021/10/05 14:11:39;;;;;;;4.85;2.33;;;;;;;;;;4983176;28;20069;-89
2021/10/05 14:14:04;;;;;;;4.78;2.90;;;;;;;;;;4966113;28;20092;-89
2021/10/05 14:16:30;;;;;;;2.78;2.47;;;;;;;;;;4965496;28;20018;-89
2021/10/05 14:18:55;;;;;;;2.47;2.27;;;;;;;;;;4983084;28;20689;-89
2021/10/05 14:21:20;;;;;;;2.50;2.20;;;;;;;;;;4971182;28;20085;-89
2021/10/05 14:23:46;;;;;;;2.38;1.88;;;;;;;;;;4984887;28;20042;-88
2021/10/05 14:26:12;;;;;;;5.53;1.80;;;;;;;;;;4985921;28;20052;-89
2021/10/05 14:28:37;;;;;;;2.08;1.35;;;;;;;;;;4985489;28;20033;-88
2021/10/05 14:31:02;;;;;;;2.42;1.52;;;;;;;;;;4988311;28;20027;-89
2021/10/05 14:33:27;;;;;;;1.40;1.30;;;;;;;;;;4965140;28;20098;-89
2021/10/05 14:35:52;;;;;;;1.97;1.77;;;;;;;;;;4964954;28;20701;-88
2021/10/05 14:38:18;;;;;;;2.27;1.50;;;;;;;;;;4964529;28;20276;-89
2021/10/05 14:40:43;;;;;;;1.67;1.27;;;;;;;;;;4965313;28;20106;-88
2021/10/05 14:43:08;;;;;;;1.80;1.30;;;;;;;;;;4984478;28;20030;-89
2021/10/05 14:45:33;;;;;;;1.27;1.17;;;;;;;;;;4976324;28;20080;-89
2021/10/05 14:47:59;;;;;;;1.08;0.98;;;;;;;;;;4976238;28;20041;-88
2021/10/05 14:50:25;;;;;;;1.00;0.90;;;;;;;;;;4976187;28;20061;-89
2021/10/05 14:52:50;;;;;;;3.05;1.08;;;;;;;;;;4976431;28;20026;-88
2021/10/05 14:55:15;;;;;;;1.50;1.00;;;;;;;;;;4976056;28;20077;-88
2021/10/05 14:57:41;;;;;;;1.90;1.03;;;;;;;;;;4975856;28;20280;-88
2021/10/05 15:00:07;;;;;;;1.17;1.05;;;;;;;;;;4993488;28;20060;-88
2021/10/05 15:02:35;;;;;;;1.05;0.90;;;;;;;;;;4975130;28;20034;-88
2021/10/05 15:05:01;;;;;;;0.82;0.82;;;;;;;;;;4975376;28;20030;-89
2021/10/05 15:07:28;;;;;;;1.33;1.23;;;;;;;;;;4993059;28;20096;-89
2021/10/05 15:09:54;;;;;;;1.60;1.30;;;;;;;;;;4975838;28;20034;-88
2021/10/05 15:12:19;;;;;;;1.33;1.23;;;;;;;;;;4976719;28;20075;-88
2021/10/05 15:14:44;;;;;;;0.95;0.90;;;;;;;;;;4992233;28;20018;-89
2021/10/05 15:17:09;;;;;;;0.93;0.93;;;;;;;;;;4991753;28;20046;-90
2021/10/05 15:19:35;;;;;;;1.17;1.07;;;;;;;;;;4991617;28;20783;-89
2021/10/05 15:22:00;;;;;;;1.30;1.20;;;;;;;;;;4976893;28;20045;-91
2021/10/05 15:24:26;;;;;;;3.60;1.27;;;;;;;;;;4994192;28;20271;-91
2021/10/05 15:26:53;;;;;;;1.52;0.93;;;;;;;;;;4993488;28;20028;-90
2021/10/05 15:29:19;;;;;;;1.00;1.00;;;;;;;;;;5011005;28;20061;-91
2021/10/05 15:31:46;;;;;;;4.57;1.80;;;;;;;;;;5011485;28;20046;-91
2021/10/05 15:34:19;;;;;;;1.52;1.00;;;;;;;;;;4993471;28;20291;-91
2021/10/05 15:36:46;;;;;;;5.25;1.13;;;;;;;;;;4993244;28;20026;-90
2021/10/05 15:39:16;;;;;;;1.50;1.25;;;;;;;;;;4993448;28;20388;-90
2021/10/05 15:41:41;;;;;;;1.55;1.13;;;;;;;;;;4993520;28;20026;-90
2021/10/05 15:44:06;;;;;;;1.37;1.10;;;;;;;;;;5011404;28;20096;-89
2021/10/05 15:46:33;;;;;;;1.58;1.10;;;;;;;;;;5010523;28;20269;-89
2021/10/05 15:48:58;;;;;;;1.00;1.00;;;;;;;;;;4993584;28;20061;-90
2021/10/05 15:51:34;;;;;;;1.60;1.40;;;;;;;;;;5011374;28;20052;-89
2021/10/05 15:53:59;;;;;;;1.23;1.10;;;;;;;;;;4995867;28;20026;-89
2021/10/05 15:56:24;;;;;;;2.33;1.53;;;;;;;;;;5015122;28;20028;-89
2021/10/05 15:58:50;;;;;;;3.08;1.42;;;;;;;;;;5011394;28;20336;-90
2021/10/05 16:01:15;;;;;;;3.08;1.60;;;;;;;;;;5007117;28;20018;-89
2021/10/05 16:03:40;;;;;;;1.23;1.13;;;;;;;;;;5015013;28;20036;-90
2021/10/05 16:06:05;;;;;;;1.53;1.43;;;;;;;;;;5015914;28;20465;-89
2021/10/05 16:08:33;;;;;;;1.60;1.50;;;;;;;;;;4998232;28;20029;-89
2021/10/05 16:11:02;;;;;;;2.38;1.63;;;;;;;;;;4997112;28;20025;-90
2021/10/05 16:13:27;;;;;;;2.05;1.50;;;;;;;;;;4996820;28;20026;-89
2021/10/05 16:15:53;;;;;;;2.30;1.30;;;;;;;;;;4997133;28;20021;-89
2021/10/05 16:18:18;;;;;;;2.00;1.42;;;;;;;;;;4995519;28;20265;-90
2021/10/05 16:20:44;;;;;;;2.08;1.70;;;;;;;;;;5013511;28;20029;-90
2021/10/05 16:23:09;;;;;;;2.63;1.75;;;;;;;;;;5033643;28;20029;-90
2021/10/05 16:25:34;;;;;;;1.15;1.10;;;;;;;;;;5034323;28;20032;-90
2021/10/05 16:27:59;;;;;;;1.20;1.20;;;;;;;;;;5016955;28;20017;-90
2021/10/05 16:30:25;;;;;;;1.23;1.08;;;;;;;;;;5016639;28;20021;-90
2021/10/05 16:32:52;;;;;;;1.75;1.42;;;;;;;;;;5016203;28;20481;-90
2021/10/05 16:35:20;;;;;;;3.60;1.48;;;;;;;;;;5034003;28;20457;-89
2021/10/05 16:37:45;;;;;;;4.97;1.60;;;;;;;;;;5034543;28;20045;-89
2021/10/05 16:40:10;;;;;;;1.33;1.23;;;;;;;;;;5016407;28;20056;-90
2021/10/05 16:42:36;;;;;;;2.20;1.67;;;;;;;;;;5016339;28;20021;-89
2021/10/05 16:45:03;;;;;;;2.13;1.80;;;;;;;;;;5033822;28;20033;-89
2021/10/05 16:47:28;;;;;;;2.70;1.95;;;;;;;;;;5016392;28;20264;-89
2021/10/05 16:49:53;;;;;;;2.03;1.80;;;;;;;;;;5016362;28;20033;-89
2021/10/05 16:52:18;;;;;;;12.83;10.37;;;;;;;;;;5016724;28;20021;-90
2021/10/05 16:54:44;;;;;;;6.38;3.80;;;;;;;;;;5017298;28;20252;-89
2021/10/05 16:57:09;;;;;;;2.60;2.23;;;;;;;;;;5016641;28;20108;-90
2021/10/05 16:59:35;;;;;;;3.03;2.30;;;;;;;;;;5034658;28;20256;-89
2021/10/05 17:02:01;;;;;;;2.17;2.03;;;;;;;;;;5035551;28;20264;-90
2021/10/05 17:04:26;;;;;;;5.60;2.88;;;;;;;;;;5016899;28;20384;-89
2021/10/05 17:06:51;;;;;;;7.53;3.55;;;;;;;;;;5036280;28;20107;-88
2021/10/05 17:09:16;;;;;;;3.72;2.42;;;;;;;;;;5016355;28;20425;-88
2021/10/05 17:11:42;;;;;;;6.60;3.30;;;;;;;;;;5016757;28;20044;-89
2021/10/05 17:14:08;;;;;;;3.10;2.60;;;;;;;;;;5016998;28;20457;-90
2021/10/05 17:16:33;;;;;;;3.25;2.80;;;;;;;;;;5016480;28;20028;-89
2021/10/05 17:18:58;;;;;;;2.90;2.20;;;;;;;;;;5017114;28;20105;-89
2021/10/05 17:21:23;;;;;;;4.43;2.23;;;;;;;;;;5016665;28;20750;-89
2021/10/05 17:23:49;;;;;;;3.90;2.67;;;;;;;;;;5016439;28;20279;-90
2021/10/05 17:26:15;;;;;;;3.20;2.90;;;;;;;;;;5012690;28;20034;-90
2021/10/05 17:28:40;;;;;;;3.20;2.90;;;;;;;;;;4997357;28;20100;-88
2021/10/05 17:31:05;;;;;;;8.03;3.53;;;;;;;;;;4998101;28;20044;-88
2021/10/05 17:33:30;;;;;;;4.33;3.20;;;;;;;;;;5015947;28;20947;-88
2021/10/05 17:35:55;;;;;;;3.17;2.83;;;;;;;;;;5016540;28;20352;-89
2021/10/05 17:38:21;;;;;;;4.53;3.03;;;;;;;;;;4996198;28;20257;-88
2021/10/05 17:40:46;;;;;;;5.13;2.87;;;;;;;;;;5013361;28;20248;-88
2021/10/05 17:43:11;;;;;;;3.80;1.90;;;;;;;;;;4995905;28;20036;-88
2021/10/05 17:45:36;;;;;;;4.65;2.72;;;;;;;;;;4992953;28;20268;-89
2021/10/05 17:48:01;;;;;;;2.90;2.40;;;;;;;;;;5031804;28;20025;-89
2021/10/05 17:50:28;;;;;;;2.65;2.45;;;;;;;;;;5015367;28;20260;-89
2021/10/05 17:52:53;;;;;;;2.95;2.70;;;;;;;;;;5035097;28;20025;-88
2021/10/05 17:55:19;;;;;;;3.28;2.97;;;;;;;;;;5016260;28;20818;-89
2021/10/05 17:57:44;;;;;;;4.95;3.53;;;;;;;;;;4999607;28;20010;-88
2021/10/05 18:00:10;;;;;;;3.72;3.35;;;;;;;;;;5017763;28;20025;-88
2021/10/05 18:02:36;;;;;;;3.30;2.75;;;;;;;;;;5016847;28;20056;-89
2021/10/05 18:05:01;;;;;;;6.75;3.47;;;;;;;;;;5016606;28;20120;-89
2021/10/05 18:07:32;;;;;;;5.68;3.55;;;;;;;;;;4998886;28;20033;-89
2021/10/05 18:09:57;;;;;;;7.50;4.60;;;;;;;;;;4997351;28;20030;-89
2021/10/05 18:12:23;;;;;;;5.80;4.85;;;;;;;;;;4996708;28;20725;-89
2021/10/05 18:14:48;;;;;;;7.25;4.63;;;;;;;;;;4997239;28;20021;-89
2021/10/05 18:17:13;;;;;;;7.60;4.57;;;;;;;;;;4997398;28;20022;-89
2021/10/05 18:19:40;;;;;;;7.03;5.43;;;;;;;;;;4997880;28;20404;-89
2021/10/05 18:22:06;;;;;;;7.20;6.57;;;;;;;;;;5015651;28;20344;-89
2021/10/05 18:24:31;;;;;;;6.70;6.10;;;;;;;;;;5012128;28;20564;-89
2021/10/05 18:26:56;;;;;;;10.68;7.32;;;;;;;;;;5015929;28;20026;-88
2021/10/05 18:29:22;;;;;;;7.83;7.00;;;;;;;;;;5009270;28;20085;-89
2021/10/05 18:31:48;;;;;;;8.48;7.68;;;;;;;;;;5015487;28;20257;-88
2021/10/05 18:34:13;;;;;;;8.57;7.53;;;;;;;;;;5013124;28;20112;-90
2021/10/05 18:36:38;;;;;;;9.30;8.43;;;;;;;;;;5012266;28;20167;-90
2021/10/05 18:39:04;;;;;;;9.88;8.95;;;;;;;;;;5002633;28;20140;-89
2021/10/05 18:41:29;;;;;;;9.30;8.48;;;;;;;;;;5012343;28;20022;-90
2021/10/05 18:43:54;;;;;;;7.78;6.97;;;;;;;;;;5009567;28;20026;-90
2021/10/05 18:46:20;;;;;;;8.80;8.07;;;;;;;;;;5012051;28;20026;-89
2021/10/05 18:48:45;;;;;;;9.68;8.30;;;;;;;;;;5008136;28;20112;-90
2021/10/05 18:51:10;;;;;;;9.07;8.30;;;;;;;;;;5004339;28;20456;-89
2021/10/05 18:53:36;;;;;;;12.83;11.20;;;;;;;;;;5012336;28;20029;-88
2021/10/05 18:56:06;;;;;;;12.25;11.15;;;;;;;;;;5011639;28;20260;-89
2021/10/05 18:58:35;;;;;;;11.00;9.90;;;;;;;;;;5012784;28;20205;-89
2021/10/05 19:01:01;;;;;;;14.05;12.23;;;;;;;;;;5012102;28;20022;-89
2021/10/05 19:03:26;;;;;;;12.90;11.67;;;;;;;;;;5011842;28;20041;-89
2021/10/05 19:05:51;;;;;;;15.83;14.23;;;;;;;;;;5009201;28;20261;-89
2021/10/05 19:08:17;;;;;;;18.48;15.30;;;;;;;;;;5004325;28;20636;-89
2021/10/05 19:10:42;;;;;;;20.10;16.02;;;;;;;;;;5010798;28;20038;-89
2021/10/05 19:13:07;;;;;;;22.43;16.83;;;;;;;;;;5002930;28;20025;-89
2021/10/05 19:15:32;;;;;;;13.35;12.07;;;;;;;;;;5011667;28;20277;-89
2021/10/05 19:18:00;;;;;;;14.80;12.33;;;;;;;;;;5010943;28;20537;-90
2021/10/05 19:20:25;;;;;;;17.88;14.93;;;;;;;;;;5011951;28;20256;-90
2021/10/05 19:22:51;;;;;;;14.60;13.02;;;;;;;;;;5011740;28;20057;-90
2021/10/05 19:25:16;;;;;;;21.55;16.98;;;;;;;;;;5011684;28;20045;-90
2021/10/05 19:27:42;;;;;;;19.45;16.13;;;;;;;;;;5007201;28;20030;-89
2021/10/05 19:30:07;;;;;;;24.30;18.70;;;;;;;;;;5002966;28;20029;-89
2021/10/05 19:32:32;;;;;;;25.90;18.45;;;;;;;;;;5012153;28;20061;-89
2021/10/05 19:34:58;;;;;;;21.42;18.92;;;;;;;;;;5012234;28;20032;-88
2021/10/05 19:37:23;;;;;;;20.37;18.20;;;;;;;;;;5005293;28;20420;-89
2021/10/05 19:39:48;;;;;;;22.05;16.60;;;;;;;;;;5011317;28;20260;-89
2021/10/05 19:42:13;;;;;;;29.75;21.48;;;;;;;;;;5003160;28;20527;-88
2021/10/05 19:44:39;;;;;;;30.10;21.67;;;;;;;;;;5010193;28;20029;-88
2021/10/05 19:47:04;;;;;;;19.47;17.37;;;;;;;;;;5002765;28;20264;-89
2021/10/05 19:49:29;;;;;;;15.03;13.53;;;;;;;;;;5010488;28;20740;-89
2021/10/05 19:51:54;;;;;;;19.33;16.42;;;;;;;;;;5011600;28;20067;-89
2021/10/05 19:54:19;;;;;;;14.90;13.47;;;;;;;;;;5004085;28;20100;-89
2021/10/05 19:56:45;;;;;;;13.77;12.47;;;;;;;;;;5010186;28;20431;-88
2021/10/05 19:59:10;;;;;;;14.60;13.20;;;;;;;;;;5003269;28;20376;-88
2021/10/05 20:01:35;;;;;;;15.00;13.30;;;;;;;;;;5011720;28;20271;-89
2021/10/05 20:04:02;;;;;;;33.78;21.13;;;;;;;;;;5009691;28;20257;-88
2021/10/05 20:06:27;;;;;;;20.10;16.60;;;;;;;;;;5011551;28;20026;-88
2021/10/05 20:08:52;;;;;;;14.40;13.00;;;;;;;;;;5009032;28;20084;-88
2021/10/05 20:11:19;;;;;;;17.73;15.90;;;;;;;;;;5006043;28;20022;-89
2021/10/05 20:13:44;;;;;;;25.08;18.77;;;;;;;;;;5009996;28;20054;-89
2021/10/05 20:16:09;;;;;;;19.02;16.98;;;;;;;;;;5011293;28;20061;-89
2021/10/05 20:18:34;;;;;;;13.47;12.27;;;;;;;;;;5006038;28;20471;-89
2021/10/05 20:21:00;;;;;;;21.73;17.63;;;;;;;;;;5011720;28;20068;-89
2021/10/05 20:23:25;;;;;;;20.38;18.30;;;;;;;;;;5004705;28;20030;-88
2021/10/05 20:25:51;;;;;;;21.15;17.90;;;;;;;;;;5011411;28;20022;-88
2021/10/05 20:28:16;;;;;;;25.25;18.77;;;;;;;;;;5011387;28;20046;-88
2021/10/05 20:30:41;;;;;;;23.77;19.70;;;;;;;;;;5011197;28;20038;-88
2021/10/05 20:33:09;;;;;;;24.20;19.53;;;;;;;;;;5011844;28;20281;-88
2021/10/05 20:35:34;;;;;;;23.30;18.92;;;;;;;;;;5006504;28;20052;-88
2021/10/05 20:37:59;;;;;;;15.45;13.95;;;;;;;;;;5010087;28;20025;-88
2021/10/05 20:40:24;;;;;;;18.02;15.10;;;;;;;;;;5007542;28;20047;-89
2021/10/05 20:42:50;;;;;;;16.70;14.90;;;;;;;;;;5013924;28;20026;-88
2021/10/05 20:45:15;;;;;;;15.65;14.15;;;;;;;;;;5007236;28;20026;-88
2021/10/05 20:47:40;;;;;;;19.40;17.27;;;;;;;;;;5013997;28;20022;-89
2021/10/05 20:50:06;;;;;;;20.00;17.88;;;;;;;;;;5014837;28;20025;-88
2021/10/05 20:52:32;;;;;;;20.02;17.83;;;;;;;;;;5014480;28;20021;-89
2021/10/05 20:54:57;;;;;;;20.58;17.70;;;;;;;;;;5012879;28;20144;-89
2021/10/05 20:57:22;;;;;;;20.90;18.50;;;;;;;;;;5007758;28;20381;-88
2021/10/05 20:59:47;;;;;;;17.40;15.60;;;;;;;;;;5013363;28;20257;-89
2021/10/05 21:02:15;;;;;;;20.27;16.92;;;;;;;;;;5006390;28;20032;-89
2021/10/05 21:04:42;;;;;;;16.33;14.73;;;;;;;;;;5014295;28;20052;-89
2021/10/05 21:07:07;;;;;;;18.05;16.20;;;;;;;;;;5005813;28;20022;-88
2021/10/05 21:09:33;;;;;;;16.57;15.07;;;;;;;;;;5013348;28;20043;-89
2021/10/05 21:11:58;;;;;;;19.50;17.50;;;;;;;;;;5012992;28;20025;-88
2021/10/05 21:14:23;;;;;;;16.27;14.77;;;;;;;;;;5014540;28;20761;-89
2021/10/05 21:16:48;;;;;;;18.03;16.20;;;;;;;;;;5014592;28;20525;-88
2021/10/05 21:19:14;;;;;;;18.55;16.70;;;;;;;;;;5014231;28;20319;-88
2021/10/05 21:21:39;;;;;;;18.92;17.13;;;;;;;;;;5013163;28;20054;-88
2021/10/05 21:24:04;;;;;;;20.92;18.75;;;;;;;;;;5015087;28;20052;-89
2021/10/05 21:26:29;;;;;;;20.70;18.50;;;;;;;;;;5014232;28;20373;-88
2021/10/05 21:28:55;;;;;;;17.77;15.97;;;;;;;;;;5014012;28;20036;-88
2021/10/05 21:31:20;;;;;;;19.30;17.37;;;;;;;;;;5007162;28;20336;-88
2021/10/05 21:33:45;;;;;;;19.67;17.77;;;;;;;;;;5013784;28;20836;-89
2021/10/05 21:36:10;;;;;;;20.27;18.17;;;;;;;;;;5014156;28;20022;-89
2021/10/05 21:38:36;;;;;;;23.60;20.70;;;;;;;;;;5016774;28;20481;-89
2021/10/05 21:41:01;;;;;;;19.88;17.52;;;;;;;;;;5016968;28;20264;-88
2021/10/05 21:43:26;;;;;;;31.98;23.95;;;;;;;;;;5013843;28;20030;-89
2021/10/05 21:45:51;;;;;;;19.57;17.67;;;;;;;;;;5011088;28;20030;-88
2021/10/05 21:48:16;;;;;;;25.40;21.90;;;;;;;;;;5013960;28;20273;-88
2021/10/05 21:50:42;;;;;;;33.17;25.60;;;;;;;;;;5008619;28;20350;-89